sensor_id;sensor_type;location;lat;lon;timestamp;P1;durP1;ratioP1;P2;durP2;ratioP2
16965;SDS011;8599;47.852;12.070;2023-01-31T00:00:55;4.83;;;3.67;;
16965;SDS011;8599;47.852;12.070;2023-01-31T00:03:22;9.37;;;3.70;;
16965;SDS011;8599;47.852;12.070;2023-01-31T00:05:49;5.70;;;3.30;;
16965;SDS011;8599;47.852;12.070;2023-01-31T00:08:16;3.27;;;2.73;;
16965;SDS011;8599;47.852;12.070;2023-01-31T00:10:43;4.97;;;3.13;;
16965;SDS011;8599;47.852;12.070;2023-01-31T00:13:11;3.63;;;2.93;;
16965;SDS011;8599;47.852;12.070;2023-01-31T00:15:38;5.43;;;3.43;;
16965;SDS011;8599;47.852;12.070;2023-01-31T00:18:05;7.17;;;3.67;;
16965;SDS011;8599;47.852;12.070;2023-01-31T00:20:31;4.87;;;3.37;;
16965;SDS011;8599;47.852;12.070;2023-01-31T00:22:58;6.27;;;3.27;;
16965;SDS011;8599;47.852;12.070;2023-01-31T00:25:25;4.13;;;3.07;;
16965;SDS011;8599;47.852;12.070;2023-01-31T00:27:52;3.07;;;2.77;;
16965;SDS011;8599;47.852;12.070;2023-01-31T00:30:20;5.07;;;3.73;;
16965;SDS011;8599;47.852;12.070;2023-01-31T00:32:47;7.57;;;3.23;;
16965;SDS011;8599;47.852;12.070;2023-01-31T00:35:13;5.57;;;3.57;;
16965;SDS011;8599;47.852;12.070;2023-01-31T00:37:40;8.67;;;4.40;;
16965;SDS011;8599;47.852;12.070;2023-01-31T00:40:08;3.83;;;2.87;;
16965;SDS011;8599;47.852;12.070;2023-01-31T00:42:35;6.47;;;2.80;;
16965;SDS011;8599;47.852;12.070;2023-01-31T00:45:02;4.33;;;3.47;;
16965;SDS011;8599;47.852;12.070;2023-01-31T00:47:31;6.93;;;3.03;;
16965;SDS011;8599;47.852;12.070;2023-01-31T00:49:58;3.73;;;3.20;;
16965;SDS011;8599;47.852;12.070;2023-01-31T00:52:25;4.90;;;3.37;;
16965;SDS011;8599;47.852;12.070;2023-01-31T00:54:52;4.30;;;3.20;;
16965;SDS011;8599;47.852;12.070;2023-01-31T00:57:19;7.67;;;3.43;;
16965;SDS011;8599;47.852;12.070;2023-01-31T00:59:45;5.10;;;2.67;;
16965;SDS011;8599;47.852;12.070;2023-01-31T01:02:12;12.43;;;3.33;;
16965;SDS011;8599;47.852;12.070;2023-01-31T01:04:40;7.47;;;2.67;;
16965;SDS011;8599;47.852;12.070;2023-01-31T01:07:07;5.83;;;2.97;;
16965;SDS011;8599;47.852;12.070;2023-01-31T01:09:34;5.00;;;3.00;;
16965;SDS011;8599;47.852;12.070;2023-01-31T01:12:01;3.77;;;2.73;;
16965;SDS011;8599;47.852;12.070;2023-01-31T01:14:27;5.87;;;3.00;;
16965;SDS011;8599;47.852;12.070;2023-01-31T01:16:54;4.97;;;3.17;;
16965;SDS011;8599;47.852;12.070;2023-01-31T01:19:23;4.57;;;2.73;;
16965;SDS011;8599;47.852;12.070;2023-01-31T01:21:52;4.00;;;2.97;;
16965;SDS011;8599;47.852;12.070;2023-01-31T01:24:20;4.97;;;3.03;;
16965;SDS011;8599;47.852;12.070;2023-01-31T01:26:46;4.80;;;3.20;;
16965;SDS011;8599;47.852;12.070;2023-01-31T01:29:13;6.33;;;3.77;;
16965;SDS011;8599;47.852;12.070;2023-01-31T01:31:40;6.17;;;2.83;;
16965;SDS011;8599;47.852;12.070;2023-01-31T01:34:08;5.00;;;3.10;;
16965;SDS011;8599;47.852;12.070;2023-01-31T01:36:37;3.90;;;2.63;;
16965;SDS011;8599;47.852;12.070;2023-01-31T01:39:06;3.70;;;2.73;;
16965;SDS011;8599;47.852;12.070;2023-01-31T01:41:35;3.13;;;2.83;;
16965;SDS011;8599;47.852;12.070;2023-01-31T01:44:03;5.33;;;3.37;;
16965;SDS011;8599;47.852;12.070;2023-01-31T01:46:51;5.13;;;2.50;;
16965;SDS011;8599;47.852;12.070;2023-01-31T01:49:19;3.63;;;2.60;;
16965;SDS011;8599;47.852;12.070;2023-01-31T01:51:52;5.67;;;3.30;;
16965;SDS011;8599;47.852;12.070;2023-01-31T01:54:24;6.13;;;3.17;;
16965;SDS011;8599;47.852;12.070;2023-01-31T01:56:54;4.87;;;3.27;;
16965;SDS011;8599;47.852;12.070;2023-01-31T01:59:25;4.47;;;3.13;;
16965;SDS011;8599;47.852;12.070;2023-01-31T02:01:57;4.70;;;3.00;;
16965;SDS011;8599;47.852;12.070;2023-01-31T02:04:25;4.23;;;2.97;;
16965;SDS011;8599;47.852;12.070;2023-01-31T02:06:56;7.97;;;4.07;;
16965;SDS011;8599;47.852;12.070;2023-01-31T02:09:24;2.97;;;2.67;;
16965;SDS011;8599;47.852;12.070;2023-01-31T02:11:57;4.10;;;3.13;;
16965;SDS011;8599;47.852;12.070;2023-01-31T02:14:24;3.73;;;3.30;;
16965;SDS011;8599;47.852;12.070;2023-01-31T02:16:52;9.77;;;2.90;;
16965;SDS011;8599;47.852;12.070;2023-01-31T02:19:26;4.90;;;3.10;;
16965;SDS011;8599;47.852;12.070;2023-01-31T02:22:03;5.40;;;3.17;;
16965;SDS011;8599;47.852;12.070;2023-01-31T02:27:48;2.93;;;2.70;;
16965;SDS011;8599;47.852;12.070;2023-01-31T02:30:50;4.13;;;2.60;;
16965;SDS011;8599;47.852;12.070;2023-01-31T02:33:32;4.00;;;3.33;;
16965;SDS011;8599;47.852;12.070;2023-01-31T02:36:06;5.57;;;2.90;;
16965;SDS011;8599;47.852;12.070;2023-01-31T02:38:49;3.50;;;2.67;;
16965;SDS011;8599;47.852;12.070;2023-01-31T02:41:26;5.10;;;3.00;;
16965;SDS011;8599;47.852;12.070;2023-01-31T02:43:58;2.97;;;2.63;;
16965;SDS011;8599;47.852;12.070;2023-01-31T02:46:49;5.50;;;3.10;;
16965;SDS011;8599;47.852;12.070;2023-01-31T02:49:23;5.60;;;2.80;;
16965;SDS011;8599;47.852;12.070;2023-01-31T02:52:06;3.87;;;3.07;;
16965;SDS011;8599;47.852;12.070;2023-01-31T02:54:42;7.00;;;3.43;;
16965;SDS011;8599;47.852;12.070;2023-01-31T02:57:43;4.60;;;3.17;;
16965;SDS011;8599;47.852;12.070;2023-01-31T03:16:39;5.20;;;2.90;;
16965;SDS011;8599;47.852;12.070;2023-01-31T03:19:31;2.63;;;2.20;;
16965;SDS011;8599;47.852;12.070;2023-01-31T03:22:04;3.27;;;2.97;;
16965;SDS011;8599;47.852;12.070;2023-01-31T03:24:36;4.33;;;2.70;;
16965;SDS011;8599;47.852;12.070;2023-01-31T03:27:04;3.53;;;2.40;;
16965;SDS011;8599;47.852;12.070;2023-01-31T03:29:33;2.57;;;2.30;;
16965;SDS011;8599;47.852;12.070;2023-01-31T03:32:03;3.80;;;2.23;;
16965;SDS011;8599;47.852;12.070;2023-01-31T03:34:33;5.10;;;2.77;;
16965;SDS011;8599;47.852;12.070;2023-01-31T03:37:02;3.27;;;2.80;;
16965;SDS011;8599;47.852;12.070;2023-01-31T03:39:36;3.53;;;2.50;;
16965;SDS011;8599;47.852;12.070;2023-01-31T03:42:06;3.97;;;1.90;;
16965;SDS011;8599;47.852;12.070;2023-01-31T03:44:40;3.47;;;2.23;;
16965;SDS011;8599;47.852;12.070;2023-01-31T03:47:12;2.43;;;2.00;;
16965;SDS011;8599;47.852;12.070;2023-01-31T03:49:42;4.27;;;2.40;;
16965;SDS011;8599;47.852;12.070;2023-01-31T03:52:11;4.87;;;2.80;;
16965;SDS011;8599;47.852;12.070;2023-01-31T03:54:43;2.03;;;1.90;;
16965;SDS011;8599;47.852;12.070;2023-01-31T03:57:15;4.13;;;2.50;;
16965;SDS011;8599;47.852;12.070;2023-01-31T03:59:48;5.23;;;2.67;;
16965;SDS011;8599;47.852;12.070;2023-01-31T04:02:18;3.67;;;2.60;;
16965;SDS011;8599;47.852;12.070;2023-01-31T04:04:49;2.67;;;2.47;;
16965;SDS011;8599;47.852;12.070;2023-01-31T04:07:20;2.83;;;2.20;;
16965;SDS011;8599;47.852;12.070;2023-01-31T04:09:47;2.90;;;2.10;;
16965;SDS011;8599;47.852;12.070;2023-01-31T04:12:14;2.93;;;2.20;;
16965;SDS011;8599;47.852;12.070;2023-01-31T04:14:41;4.53;;;2.07;;
16965;SDS011;8599;47.852;12.070;2023-01-31T04:17:10;4.40;;;2.73;;
16965;SDS011;8599;47.852;12.070;2023-01-31T04:19:36;3.30;;;2.10;;
16965;SDS011;8599;47.852;12.070;2023-01-31T04:22:03;2.53;;;1.80;;
16965;SDS011;8599;47.852;12.070;2023-01-31T04:24:30;5.50;;;2.70;;
16965;SDS011;8599;47.852;12.070;2023-01-31T04:26:57;2.07;;;1.87;;
16965;SDS011;8599;47.852;12.070;2023-01-31T04:29:24;2.40;;;2.20;;
16965;SDS011;8599;47.852;12.070;2023-01-31T04:31:51;6.37;;;2.33;;
16965;SDS011;8599;47.852;12.070;2023-01-31T04:34:19;4.27;;;2.23;;
16965;SDS011;8599;47.852;12.070;2023-01-31T04:36:46;2.33;;;2.13;;
16965;SDS011;8599;47.852;12.070;2023-01-31T04:39:12;3.87;;;2.37;;
16965;SDS011;8599;47.852;12.070;2023-01-31T04:41:40;3.60;;;2.60;;
16965;SDS011;8599;47.852;12.070;2023-01-31T04:44:07;4.77;;;2.47;;
16965;SDS011;8599;47.852;12.070;2023-01-31T04:46:34;4.23;;;2.60;;
16965;SDS011;8599;47.852;12.070;2023-01-31T04:49:01;4.60;;;2.53;;
16965;SDS011;8599;47.852;12.070;2023-01-31T04:51:30;4.23;;;2.17;;
16965;SDS011;8599;47.852;12.070;2023-01-31T04:53:56;3.17;;;2.30;;
16965;SDS011;8599;47.852;12.070;2023-01-31T04:56:23;3.90;;;2.13;;
16965;SDS011;8599;47.852;12.070;2023-01-31T04:58:50;2.80;;;2.17;;
16965;SDS011;8599;47.852;12.070;2023-01-31T05:01:17;5.23;;;2.30;;
16965;SDS011;8599;47.852;12.070;2023-01-31T05:03:44;7.30;;;2.23;;
16965;SDS011;8599;47.852;12.070;2023-01-31T05:06:11;4.40;;;2.23;;
16965;SDS011;8599;47.852;12.070;2023-01-31T05:08:39;4.97;;;2.63;;
16965;SDS011;8599;47.852;12.070;2023-01-31T05:11:06;5.10;;;2.67;;
16965;SDS011;8599;47.852;12.070;2023-01-31T05:13:33;3.67;;;2.23;;
16965;SDS011;8599;47.852;12.070;2023-01-31T05:16:03;4.93;;;2.47;;
16965;SDS011;8599;47.852;12.070;2023-01-31T05:18:31;2.97;;;2.30;;
16965;SDS011;8599;47.852;12.070;2023-01-31T05:20:59;7.20;;;2.40;;
16965;SDS011;8599;47.852;12.070;2023-01-31T05:23:26;3.70;;;1.80;;
16965;SDS011;8599;47.852;12.070;2023-01-31T05:25:54;4.40;;;2.50;;
16965;SDS011;8599;47.852;12.070;2023-01-31T05:28:21;2.27;;;2.00;;
16965;SDS011;8599;47.852;12.070;2023-01-31T05:30:50;2.53;;;2.33;;
16965;SDS011;8599;47.852;12.070;2023-01-31T05:33:16;3.73;;;2.60;;
16965;SDS011;8599;47.852;12.070;2023-01-31T05:35:44;4.90;;;2.50;;
16965;SDS011;8599;47.852;12.070;2023-01-31T05:38:11;3.27;;;2.40;;
16965;SDS011;8599;47.852;12.070;2023-01-31T05:40:38;6.53;;;3.00;;
16965;SDS011;8599;47.852;12.070;2023-01-31T05:43:07;4.60;;;2.37;;
16965;SDS011;8599;47.852;12.070;2023-01-31T05:45:33;2.17;;;1.97;;
16965;SDS011;8599;47.852;12.070;2023-01-31T05:48:00;4.30;;;2.77;;
16965;SDS011;8599;47.852;12.070;2023-01-31T05:50:27;3.70;;;2.40;;
16965;SDS011;8599;47.852;12.070;2023-01-31T05:52:55;3.90;;;2.30;;
16965;SDS011;8599;47.852;12.070;2023-01-31T05:55:27;5.87;;;2.47;;
16965;SDS011;8599;47.852;12.070;2023-01-31T05:57:54;7.20;;;2.70;;
16965;SDS011;8599;47.852;12.070;2023-01-31T06:00:23;3.60;;;2.60;;
16965;SDS011;8599;47.852;12.070;2023-01-31T06:02:50;3.67;;;2.53;;
16965;SDS011;8599;47.852;12.070;2023-01-31T06:05:17;3.20;;;2.53;;
16965;SDS011;8599;47.852;12.070;2023-01-31T06:07:44;3.93;;;2.10;;
16965;SDS011;8599;47.852;12.070;2023-01-31T06:10:10;3.43;;;2.63;;
16965;SDS011;8599;47.852;12.070;2023-01-31T06:12:37;3.33;;;2.23;;
16965;SDS011;8599;47.852;12.070;2023-01-31T06:15:16;7.90;;;3.85;;
16965;SDS011;8599;47.852;12.070;2023-01-31T06:17:44;6.90;;;3.23;;
16965;SDS011;8599;47.852;12.070;2023-01-31T06:20:11;5.43;;;2.45;;
16965;SDS011;8599;47.852;12.070;2023-01-31T06:22:38;2.97;;;2.00;;
16965;SDS011;8599;47.852;12.070;2023-01-31T06:25:06;3.00;;;2.00;;
16965;SDS011;8599;47.852;12.070;2023-01-31T06:27:34;10.00;;;2.77;;
16965;SDS011;8599;47.852;12.070;2023-01-31T06:30:01;7.67;;;2.93;;
16965;SDS011;8599;47.852;12.070;2023-01-31T06:32:28;2.57;;;2.07;;
16965;SDS011;8599;47.852;12.070;2023-01-31T06:34:56;6.47;;;2.50;;
16965;SDS011;8599;47.852;12.070;2023-01-31T06:37:23;9.17;;;2.93;;
16965;SDS011;8599;47.852;12.070;2023-01-31T06:39:49;3.03;;;2.07;;
16965;SDS011;8599;47.852;12.070;2023-01-31T06:42:16;11.60;;;2.30;;
16965;SDS011;8599;47.852;12.070;2023-01-31T06:44:43;2.87;;;2.30;;
16965;SDS011;8599;47.852;12.070;2023-01-31T06:47:10;2.93;;;2.00;;
16965;SDS011;8599;47.852;12.070;2023-01-31T06:49:38;8.03;;;2.50;;
16965;SDS011;8599;47.852;12.070;2023-01-31T06:52:08;7.73;;;1.90;;
16965;SDS011;8599;47.852;12.070;2023-01-31T06:54:34;3.13;;;2.10;;
16965;SDS011;8599;47.852;12.070;2023-01-31T06:57:01;2.87;;;1.53;;
16965;SDS011;8599;47.852;12.070;2023-01-31T06:59:28;1.67;;;1.57;;
16965;SDS011;8599;47.852;12.070;2023-01-31T07:01:55;2.40;;;1.70;;
16965;SDS011;8599;47.852;12.070;2023-01-31T07:04:22;3.07;;;2.27;;
16965;SDS011;8599;47.852;12.070;2023-01-31T07:06:48;3.30;;;1.77;;
16965;SDS011;8599;47.852;12.070;2023-01-31T07:09:17;3.80;;;1.87;;
16965;SDS011;8599;47.852;12.070;2023-01-31T07:11:43;2.93;;;1.77;;
16965;SDS011;8599;47.852;12.070;2023-01-31T07:14:10;5.20;;;1.93;;
16965;SDS011;8599;47.852;12.070;2023-01-31T07:16:37;4.87;;;1.47;;
16965;SDS011;8599;47.852;12.070;2023-01-31T07:19:04;4.53;;;1.90;;
16965;SDS011;8599;47.852;12.070;2023-01-31T07:21:31;2.90;;;2.07;;
16965;SDS011;8599;47.852;12.070;2023-01-31T07:24:00;7.00;;;2.47;;
16965;SDS011;8599;47.852;12.070;2023-01-31T07:26:28;3.40;;;2.03;;
16965;SDS011;8599;47.852;12.070;2023-01-31T07:28:55;5.03;;;1.83;;
16965;SDS011;8599;47.852;12.070;2023-01-31T07:31:22;2.87;;;1.77;;
16965;SDS011;8599;47.852;12.070;2023-01-31T07:33:49;2.27;;;1.80;;
16965;SDS011;8599;47.852;12.070;2023-01-31T07:36:16;2.73;;;2.20;;
16965;SDS011;8599;47.852;12.070;2023-01-31T07:38:51;2.23;;;1.67;;
16965;SDS011;8599;47.852;12.070;2023-01-31T07:41:18;2.50;;;1.77;;
16965;SDS011;8599;47.852;12.070;2023-01-31T07:43:46;6.13;;;2.93;;
16965;SDS011;8599;47.852;12.070;2023-01-31T07:46:13;4.63;;;2.60;;
16965;SDS011;8599;47.852;12.070;2023-01-31T07:48:40;5.13;;;1.77;;
16965;SDS011;8599;47.852;12.070;2023-01-31T07:51:07;8.13;;;3.20;;
16965;SDS011;8599;47.852;12.070;2023-01-31T07:53:35;5.80;;;2.87;;
16965;SDS011;8599;47.852;12.070;2023-01-31T07:56:06;9.27;;;3.90;;
16965;SDS011;8599;47.852;12.070;2023-01-31T07:58:35;6.23;;;2.73;;
16965;SDS011;8599;47.852;12.070;2023-01-31T08:01:04;5.33;;;2.23;;
16965;SDS011;8599;47.852;12.070;2023-01-31T08:03:49;3.47;;;2.03;;
16965;SDS011;8599;47.852;12.070;2023-01-31T08:06:16;3.13;;;2.53;;
16965;SDS011;8599;47.852;12.070;2023-01-31T08:08:44;3.13;;;1.97;;
16965;SDS011;8599;47.852;12.070;2023-01-31T08:11:11;3.53;;;1.77;;
16965;SDS011;8599;47.852;12.070;2023-01-31T08:13:38;3.67;;;1.73;;
16965;SDS011;8599;47.852;12.070;2023-01-31T08:16:07;7.60;;;2.10;;
16965;SDS011;8599;47.852;12.070;2023-01-31T08:18:35;2.60;;;1.67;;
16965;SDS011;8599;47.852;12.070;2023-01-31T08:21:02;4.17;;;1.77;;
16965;SDS011;8599;47.852;12.070;2023-01-31T08:23:30;4.67;;;2.20;;
16965;SDS011;8599;47.852;12.070;2023-01-31T08:26:00;2.27;;;1.87;;
16965;SDS011;8599;47.852;12.070;2023-01-31T08:28:28;3.23;;;1.93;;
16965;SDS011;8599;47.852;12.070;2023-01-31T08:30:55;4.87;;;1.77;;
16965;SDS011;8599;47.852;12.070;2023-01-31T08:33:24;2.33;;;1.60;;
16965;SDS011;8599;47.852;12.070;2023-01-31T08:35:51;2.87;;;2.10;;
16965;SDS011;8599;47.852;12.070;2023-01-31T08:38:18;4.60;;;2.50;;
16965;SDS011;8599;47.852;12.070;2023-01-31T08:40:44;6.67;;;1.63;;
16965;SDS011;8599;47.852;12.070;2023-01-31T08:43:11;2.13;;;1.60;;
16965;SDS011;8599;47.852;12.070;2023-01-31T08:45:38;5.60;;;1.80;;
16965;SDS011;8599;47.852;12.070;2023-01-31T08:48:06;4.13;;;1.70;;
16965;SDS011;8599;47.852;12.070;2023-01-31T08:50:34;1.97;;;1.57;;
16965;SDS011;8599;47.852;12.070;2023-01-31T08:53:02;4.50;;;2.23;;
16965;SDS011;8599;47.852;12.070;2023-01-31T08:55:30;4.80;;;2.30;;
16965;SDS011;8599;47.852;12.070;2023-01-31T08:57:59;1.60;;;1.50;;
16965;SDS011;8599;47.852;12.070;2023-01-31T09:00:27;3.87;;;1.87;;
16965;SDS011;8599;47.852;12.070;2023-01-31T09:02:55;4.73;;;1.80;;
16965;SDS011;8599;47.852;12.070;2023-01-31T09:05:22;8.10;;;2.07;;
16965;SDS011;8599;47.852;12.070;2023-01-31T09:07:51;3.13;;;1.63;;
16965;SDS011;8599;47.852;12.070;2023-01-31T09:10:19;6.03;;;2.10;;
16965;SDS011;8599;47.852;12.070;2023-01-31T09:12:46;3.47;;;1.60;;
16965;SDS011;8599;47.852;12.070;2023-01-31T09:15:13;4.73;;;1.80;;
16965;SDS011;8599;47.852;12.070;2023-01-31T09:17:40;6.87;;;1.93;;
16965;SDS011;8599;47.852;12.070;2023-01-31T09:20:08;11.77;;;4.17;;
16965;SDS011;8599;47.852;12.070;2023-01-31T09:22:35;1.70;;;1.60;;
16965;SDS011;8599;47.852;12.070;2023-01-31T09:25:04;3.80;;;1.83;;
16965;SDS011;8599;47.852;12.070;2023-01-31T09:27:32;9.30;;;2.17;;
16965;SDS011;8599;47.852;12.070;2023-01-31T09:29:58;12.77;;;1.93;;
16965;SDS011;8599;47.852;12.070;2023-01-31T09:32:25;4.90;;;1.57;;
16965;SDS011;8599;47.852;12.070;2023-01-31T09:34:54;2.77;;;2.13;;
16965;SDS011;8599;47.852;12.070;2023-01-31T09:37:20;5.97;;;2.13;;
16965;SDS011;8599;47.852;12.070;2023-01-31T09:39:47;1.70;;;1.60;;
16965;SDS011;8599;47.852;12.070;2023-01-31T09:42:17;2.23;;;1.90;;
16965;SDS011;8599;47.852;12.070;2023-01-31T09:44:50;4.53;;;2.17;;
16965;SDS011;8599;47.852;12.070;2023-01-31T09:47:23;1.47;;;1.33;;
16965;SDS011;8599;47.852;12.070;2023-01-31T09:49:55;6.23;;;1.80;;
16965;SDS011;8599;47.852;12.070;2023-01-31T09:52:26;7.43;;;2.40;;
16965;SDS011;8599;47.852;12.070;2023-01-31T09:54:54;6.53;;;2.00;;
16965;SDS011;8599;47.852;12.070;2023-01-31T09:57:24;10.90;;;2.10;;
16965;SDS011;8599;47.852;12.070;2023-01-31T09:59:59;5.90;;;1.90;;
16965;SDS011;8599;47.852;12.070;2023-01-31T10:02:39;3.47;;;1.63;;
16965;SDS011;8599;47.852;12.070;2023-01-31T10:05:29;4.23;;;1.50;;
16965;SDS011;8599;47.852;12.070;2023-01-31T10:08:05;3.00;;;1.50;;
16965;SDS011;8599;47.852;12.070;2023-01-31T10:10:42;6.17;;;2.10;;
16965;SDS011;8599;47.852;12.070;2023-01-31T10:13:15;1.93;;;1.23;;
16965;SDS011;8599;47.852;12.070;2023-01-31T10:15:45;7.13;;;2.10;;
16965;SDS011;8599;47.852;12.070;2023-01-31T10:18:16;8.60;;;1.93;;
16965;SDS011;8599;47.852;12.070;2023-01-31T10:20:49;5.00;;;2.00;;
16965;SDS011;8599;47.852;12.070;2023-01-31T10:23:20;4.87;;;1.53;;
16965;SDS011;8599;47.852;12.070;2023-01-31T10:25:52;3.53;;;1.73;;
16965;SDS011;8599;47.852;12.070;2023-01-31T10:28:25;8.50;;;1.83;;
16965;SDS011;8599;47.852;12.070;2023-01-31T10:30:57;5.20;;;2.33;;
16965;SDS011;8599;47.852;12.070;2023-01-31T10:33:28;6.00;;;2.17;;
16965;SDS011;8599;47.852;12.070;2023-01-31T10:36:01;2.67;;;1.63;;
16965;SDS011;8599;47.852;12.070;2023-01-31T10:38:31;5.03;;;2.00;;
16965;SDS011;8599;47.852;12.070;2023-01-31T10:41:08;3.60;;;1.70;;
16965;SDS011;8599;47.852;12.070;2023-01-31T10:43:43;6.37;;;1.93;;
16965;SDS011;8599;47.852;12.070;2023-01-31T10:46:14;5.43;;;1.77;;
16965;SDS011;8599;47.852;12.070;2023-01-31T10:48:42;2.97;;;1.87;;
16965;SDS011;8599;47.852;12.070;2023-01-31T10:51:14;6.13;;;2.03;;
16965;SDS011;8599;47.852;12.070;2023-01-31T10:53:56;1.97;;;1.70;;
16965;SDS011;8599;47.852;12.070;2023-01-31T10:56:33;2.20;;;1.80;;
16965;SDS011;8599;47.852;12.070;2023-01-31T10:59:04;3.77;;;1.80;;
16965;SDS011;8599;47.852;12.070;2023-01-31T11:01:37;5.00;;;2.13;;
16965;SDS011;8599;47.852;12.070;2023-01-31T11:04:09;3.07;;;2.00;;
16965;SDS011;8599;47.852;12.070;2023-01-31T11:06:49;4.30;;;2.40;;
16965;SDS011;8599;47.852;12.070;2023-01-31T11:09:16;2.37;;;2.13;;
16965;SDS011;8599;47.852;12.070;2023-01-31T11:11:51;6.47;;;1.80;;
16965;SDS011;8599;47.852;12.070;2023-01-31T11:14:22;9.30;;;1.90;;
16965;SDS011;8599;47.852;12.070;2023-01-31T11:16:49;3.63;;;1.67;;
16965;SDS011;8599;47.852;12.070;2023-01-31T11:19:25;3.83;;;2.10;;
16965;SDS011;8599;47.852;12.070;2023-01-31T11:21:57;3.40;;;2.10;;
16965;SDS011;8599;47.852;12.070;2023-01-31T11:24:26;2.43;;;1.90;;
16965;SDS011;8599;47.852;12.070;2023-01-31T11:26:57;3.03;;;1.80;;
16965;SDS011;8599;47.852;12.070;2023-01-31T11:29:28;2.50;;;1.83;;
16965;SDS011;8599;47.852;12.070;2023-01-31T11:31:57;3.30;;;2.23;;
16965;SDS011;8599;47.852;12.070;2023-01-31T11:34:29;2.40;;;2.20;;
16965;SDS011;8599;47.852;12.070;2023-01-31T11:37:04;6.33;;;2.50;;
16965;SDS011;8599;47.852;12.070;2023-01-31T11:39:33;3.17;;;2.30;;
16965;SDS011;8599;47.852;12.070;2023-01-31T11:42:05;5.87;;;2.90;;
16965;SDS011;8599;47.852;12.070;2023-01-31T11:44:39;3.40;;;2.47;;
16965;SDS011;8599;47.852;12.070;2023-01-31T11:47:19;4.77;;;2.50;;
16965;SDS011;8599;47.852;12.070;2023-01-31T11:49:56;3.53;;;2.70;;
16965;SDS011;8599;47.852;12.070;2023-01-31T11:52:26;4.00;;;2.80;;
16965;SDS011;8599;47.852;12.070;2023-01-31T11:54:55;6.23;;;4.10;;
16965;SDS011;8599;47.852;12.070;2023-01-31T11:57:25;4.67;;;2.53;;
16965;SDS011;8599;47.852;12.070;2023-01-31T11:59:57;8.07;;;4.10;;
16965;SDS011;8599;47.852;12.070;2023-01-31T12:02:28;14.80;;;6.43;;
16965;SDS011;8599;47.852;12.070;2023-01-31T12:05:00;6.87;;;3.47;;
16965;SDS011;8599;47.852;12.070;2023-01-31T12:07:40;4.10;;;2.23;;
16965;SDS011;8599;47.852;12.070;2023-01-31T12:10:23;4.50;;;2.67;;
16965;SDS011;8599;47.852;12.070;2023-01-31T12:12:59;3.37;;;2.20;;
16965;SDS011;8599;47.852;12.070;2023-01-31T12:15:29;3.53;;;2.50;;
16965;SDS011;8599;47.852;12.070;2023-01-31T12:17:56;2.63;;;2.30;;
16965;SDS011;8599;47.852;12.070;2023-01-31T12:20:31;3.50;;;2.40;;
16965;SDS011;8599;47.852;12.070;2023-01-31T12:23:10;2.80;;;2.47;;
16965;SDS011;8599;47.852;12.070;2023-01-31T12:25:50;4.27;;;3.13;;
16965;SDS011;8599;47.852;12.070;2023-01-31T12:28:29;6.40;;;2.80;;
16965;SDS011;8599;47.852;12.070;2023-01-31T12:31:13;6.30;;;2.77;;
16965;SDS011;8599;47.852;12.070;2023-01-31T12:34:01;5.37;;;3.33;;
16965;SDS011;8599;47.852;12.070;2023-01-31T12:36:46;6.27;;;3.30;;
16965;SDS011;8599;47.852;12.070;2023-01-31T12:39:25;3.40;;;2.50;;
16965;SDS011;8599;47.852;12.070;2023-01-31T12:42:12;3.47;;;2.73;;
16965;SDS011;8599;47.852;12.070;2023-01-31T12:44:56;4.43;;;2.70;;
16965;SDS011;8599;47.852;12.070;2023-01-31T12:47:38;6.90;;;2.97;;
16965;SDS011;8599;47.852;12.070;2023-01-31T12:50:30;3.27;;;2.80;;
16965;SDS011;8599;47.852;12.070;2023-01-31T12:53:11;3.70;;;2.53;;
16965;SDS011;8599;47.852;12.070;2023-01-31T12:56:20;3.73;;;2.97;;
16965;SDS011;8599;47.852;12.070;2023-01-31T12:59:04;6.77;;;2.77;;
16965;SDS011;8599;47.852;12.070;2023-01-31T13:01:44;3.90;;;2.43;;
16965;SDS011;8599;47.852;12.070;2023-01-31T13:04:30;6.37;;;3.63;;
16965;SDS011;8599;47.852;12.070;2023-01-31T13:07:03;5.07;;;3.37;;
16965;SDS011;8599;47.852;12.070;2023-01-31T13:09:34;5.50;;;3.33;;
16965;SDS011;8599;47.852;12.070;2023-01-31T13:12:03;4.03;;;3.10;;
16965;SDS011;8599;47.852;12.070;2023-01-31T13:14:35;8.13;;;3.33;;
16965;SDS011;8599;47.852;12.070;2023-01-31T13:17:06;5.20;;;2.90;;
16965;SDS011;8599;47.852;12.070;2023-01-31T13:19:40;6.50;;;3.30;;
16965;SDS011;8599;47.852;12.070;2023-01-31T13:22:12;4.93;;;3.27;;
16965;SDS011;8599;47.852;12.070;2023-01-31T13:24:43;5.23;;;3.63;;
16965;SDS011;8599;47.852;12.070;2023-01-31T13:27:15;8.70;;;4.27;;
16965;SDS011;8599;47.852;12.070;2023-01-31T13:29:46;4.23;;;2.80;;
16965;SDS011;8599;47.852;12.070;2023-01-31T13:32:20;7.27;;;3.40;;
16965;SDS011;8599;47.852;12.070;2023-01-31T13:34:56;10.87;;;3.13;;
16965;SDS011;8599;47.852;12.070;2023-01-31T13:37:28;4.50;;;3.07;;
16965;SDS011;8599;47.852;12.070;2023-01-31T13:39:58;4.23;;;3.63;;
16965;SDS011;8599;47.852;12.070;2023-01-31T13:42:28;4.23;;;3.20;;
16965;SDS011;8599;47.852;12.070;2023-01-31T13:44:58;8.03;;;4.20;;
16965;SDS011;8599;47.852;12.070;2023-01-31T13:47:28;7.30;;;3.33;;
16965;SDS011;8599;47.852;12.070;2023-01-31T13:50:05;6.67;;;3.47;;
16965;SDS011;8599;47.852;12.070;2023-01-31T13:52:43;5.63;;;3.43;;
16965;SDS011;8599;47.852;12.070;2023-01-31T13:55:13;3.27;;;2.90;;
16965;SDS011;8599;47.852;12.070;2023-01-31T13:57:44;3.70;;;3.20;;
16965;SDS011;8599;47.852;12.070;2023-01-31T14:00:33;7.00;;;3.47;;
16965;SDS011;8599;47.852;12.070;2023-01-31T14:03:05;5.10;;;3.13;;
16965;SDS011;8599;47.852;12.070;2023-01-31T14:05:55;3.57;;;2.73;;
16965;SDS011;8599;47.852;12.070;2023-01-31T14:08:26;7.33;;;2.97;;
16965;SDS011;8599;47.852;12.070;2023-01-31T14:14:15;3.17;;;2.80;;
16965;SDS011;8599;47.852;12.070;2023-01-31T14:16:45;3.10;;;2.80;;
16965;SDS011;8599;47.852;12.070;2023-01-31T14:19:29;3.80;;;3.13;;
16965;SDS011;8599;47.852;12.070;2023-01-31T14:22:20;4.57;;;2.83;;
16965;SDS011;8599;47.852;12.070;2023-01-31T14:27:26;5.13;;;3.30;;
16965;SDS011;8599;47.852;12.070;2023-01-31T14:29:56;3.43;;;2.43;;
16965;SDS011;8599;47.852;12.070;2023-01-31T14:32:33;7.43;;;2.80;;
16965;SDS011;8599;47.852;12.070;2023-01-31T14:35:05;5.63;;;3.00;;
16965;SDS011;8599;47.852;12.070;2023-01-31T14:37:51;12.40;;;3.40;;
16965;SDS011;8599;47.852;12.070;2023-01-31T14:40:29;5.87;;;2.50;;
16965;SDS011;8599;47.852;12.070;2023-01-31T14:43:03;3.80;;;2.70;;
16965;SDS011;8599;47.852;12.070;2023-01-31T14:48:39;3.37;;;2.40;;
16965;SDS011;8599;47.852;12.070;2023-01-31T14:51:28;3.30;;;2.10;;
16965;SDS011;8599;47.852;12.070;2023-01-31T14:54:15;3.90;;;2.70;;
16965;SDS011;8599;47.852;12.070;2023-01-31T14:59:50;8.43;;;4.00;;
16965;SDS011;8599;47.852;12.070;2023-01-31T15:02:21;4.43;;;3.37;;
16965;SDS011;8599;47.852;12.070;2023-01-31T15:05:03;5.60;;;2.73;;
16965;SDS011;8599;47.852;12.070;2023-01-31T15:07:32;14.47;;;6.70;;
16965;SDS011;8599;47.852;12.070;2023-01-31T15:10:00;6.67;;;3.97;;
16965;SDS011;8599;47.852;12.070;2023-01-31T15:15:20;7.60;;;4.97;;
16965;SDS011;8599;47.852;12.070;2023-01-31T15:17:51;11.70;;;5.67;;
16965;SDS011;8599;47.852;12.070;2023-01-31T15:20:22;7.57;;;4.13;;
16965;SDS011;8599;47.852;12.070;2023-01-31T15:22:56;6.03;;;4.10;;
16965;SDS011;8599;47.852;12.070;2023-01-31T15:25:31;5.67;;;4.37;;
16965;SDS011;8599;47.852;12.070;2023-01-31T15:28:00;8.90;;;5.00;;
16965;SDS011;8599;47.852;12.070;2023-01-31T15:30:31;6.50;;;4.10;;
16965;SDS011;8599;47.852;12.070;2023-01-31T15:33:00;14.63;;;3.53;;
16965;SDS011;8599;47.852;12.070;2023-01-31T15:35:33;4.27;;;2.80;;
16965;SDS011;8599;47.852;12.070;2023-01-31T15:38:09;5.10;;;3.17;;
16965;SDS011;8599;47.852;12.070;2023-01-31T15:40:45;3.93;;;2.87;;
16965;SDS011;8599;47.852;12.070;2023-01-31T15:43:16;3.60;;;2.77;;
16965;SDS011;8599;47.852;12.070;2023-01-31T15:45:46;5.87;;;3.87;;